NKS99C KFLL-KATL
Flight info
| Callsign | NKS99C |
|---|---|
| Flight time | N/A |
| Altitude | 34000 |
| Route | LIFRR2 CURTS Q75 TEUFL JJEDI4 |
| Aircraft | A20N/M-VGDW/C |
Departure
| Time | 2026-05-04 00:25 |
|---|---|
| Airport | Fort Lauderdale Hollywood International Airport (KFLL) |
Arrival
| Time | N/A |
|---|---|
| Airport | Hartsfield Jackson Atlanta International Airport (KATL) |
| Time | Latitude | Longitude | Altitude | Speed | Heading |
|---|---|---|---|---|---|
| 2026-05-03 23:13 | 26.07360 | -80.14656 | 27 ft | 0 kts | 205° |
| 2026-05-03 23:24 | 26.07361 | -80.14656 | 26 ft | 1 kts | 205° |
| 2026-05-03 23:25 | 26.07376 | -80.14648 | 27 ft | 2 kts | 205° |
| 2026-05-03 23:25 | 26.07391 | -80.14640 | 27 ft | 2 kts | 205° |
| 2026-05-03 23:25 | 26.07406 | -80.14632 | 27 ft | 2 kts | 205° |
| 2026-05-03 23:25 | 26.07421 | -80.14624 | 28 ft | 2 kts | 205° |
| 2026-05-03 23:26 | 26.07437 | -80.14616 | 28 ft | 2 kts | 221° |
| 2026-05-03 23:26 | 26.07450 | -80.14606 | 28 ft | 2 kts | 242° |
| 2026-05-03 23:26 | 26.07450 | -80.14605 | 28 ft | 0 kts | 248° |
| 2026-05-03 23:30 | 26.07451 | -80.14646 | 28 ft | 11 kts | 277° |
| 2026-05-03 23:30 | 26.07471 | -80.14783 | 25 ft | 25 kts | 280° |
| 2026-05-03 23:31 | 26.07486 | -80.14999 | 23 ft | 29 kts | 271° |
| 2026-05-03 23:31 | 26.07489 | -80.15231 | 20 ft | 31 kts | 270° |
| 2026-05-03 23:31 | 26.07491 | -80.15392 | 19 ft | 13 kts | 270° |
| 2026-05-03 23:31 | 26.07489 | -80.15478 | 20 ft | 9 kts | 270° |
| 2026-05-03 23:32 | 26.07490 | -80.15557 | 22 ft | 13 kts | 270° |
| 2026-05-03 23:32 | 26.07491 | -80.15657 | 22 ft | 6 kts | 270° |
| 2026-05-03 23:32 | 26.07491 | -80.15658 | 22 ft | 0 kts | 270° |
| 2026-05-03 23:39 | 26.07491 | -80.15682 | 22 ft | 7 kts | 270° |
| 2026-05-03 23:40 | 26.07492 | -80.15748 | 22 ft | 9 kts | 271° |
| 2026-05-03 23:40 | 26.07493 | -80.15799 | 23 ft | 0 kts | 271° |
| 2026-05-03 23:44 | 26.07493 | -80.15800 | 23 ft | 1 kts | 271° |
| 2026-05-03 23:44 | 26.07494 | -80.15828 | 23 ft | 6 kts | 271° |
| 2026-05-03 23:45 | 26.07494 | -80.15861 | 24 ft | 0 kts | 271° |
| 2026-05-03 23:47 | 26.07494 | -80.15870 | 24 ft | 3 kts | 271° |
| 2026-05-03 23:47 | 26.07494 | -80.15888 | 24 ft | 0 kts | 270° |
| 2026-05-03 23:50 | 26.07494 | -80.15889 | 24 ft | 1 kts | 270° |
| 2026-05-03 23:50 | 26.07494 | -80.15932 | 25 ft | 6 kts | 270° |
| 2026-05-03 23:50 | 26.07494 | -80.15960 | 26 ft | 2 kts | 270° |
| 2026-05-03 23:51 | 26.07494 | -80.15966 | 26 ft | 3 kts | 270° |
| 2026-05-03 23:51 | 26.07494 | -80.15981 | 27 ft | 0 kts | 270° |
| 2026-05-03 23:53 | 26.07494 | -80.15982 | 27 ft | 1 kts | 270° |
| 2026-05-03 23:54 | 26.07494 | -80.16000 | 27 ft | 2 kts | 270° |
| 2026-05-03 23:54 | 26.07494 | -80.16008 | 27 ft | 2 kts | 270° |
| 2026-05-03 23:54 | 26.07494 | -80.16012 | 27 ft | 0 kts | 270° |
| 2026-05-03 23:55 | 26.07494 | -80.16025 | 28 ft | 7 kts | 270° |
| 2026-05-03 23:55 | 26.07495 | -80.16068 | 28 ft | 1 kts | 273° |
| 2026-05-04 00:00 | 26.07495 | -80.16074 | 28 ft | 3 kts | 272° |
| 2026-05-04 00:00 | 26.07496 | -80.16120 | 29 ft | 8 kts | 270° |
| 2026-05-04 00:00 | 26.07496 | -80.16170 | 28 ft | 5 kts | 270° |
| 2026-05-04 00:00 | 26.07496 | -80.16185 | 28 ft | 0 kts | 270° |
| 2026-05-04 00:03 | 26.07496 | -80.16186 | 28 ft | 1 kts | 270° |
| 2026-05-04 00:03 | 26.07496 | -80.16210 | 22 ft | 4 kts | 270° |
| 2026-05-04 00:03 | 26.07496 | -80.16216 | 37 ft | 0 kts | 270° |
| 2026-05-04 00:04 | 26.07496 | -80.16222 | 33 ft | 2 kts | 270° |
| 2026-05-04 00:04 | 26.07496 | -80.16255 | 27 ft | 5 kts | 270° |
| 2026-05-04 00:04 | 26.07496 | -80.16266 | 27 ft | 0 kts | 270° |
| 2026-05-04 00:06 | 26.07496 | -80.16282 | 27 ft | 4 kts | 270° |
| 2026-05-04 00:06 | 26.07496 | -80.16289 | 27 ft | 0 kts | 270° |
| 2026-05-04 00:07 | 26.07496 | -80.16324 | 27 ft | 9 kts | 270° |
| 2026-05-04 00:07 | 26.07496 | -80.16386 | 27 ft | 6 kts | 270° |
| 2026-05-04 00:07 | 26.07496 | -80.16411 | 27 ft | 0 kts | 270° |
| 2026-05-04 00:08 | 26.07496 | -80.16419 | 27 ft | 5 kts | 270° |
| 2026-05-04 00:08 | 26.07496 | -80.16452 | 27 ft | 0 kts | 270° |
| 2026-05-04 00:11 | 26.07496 | -80.16453 | 27 ft | 1 kts | 270° |
| 2026-05-04 00:11 | 26.07496 | -80.16471 | 27 ft | 3 kts | 270° |
| 2026-05-04 00:11 | 26.07496 | -80.16495 | 28 ft | 1 kts | 270° |
| 2026-05-04 00:12 | 26.07496 | -80.16496 | 28 ft | 0 kts | 270° |
| 2026-05-04 00:13 | 26.07496 | -80.16506 | 28 ft | 2 kts | 270° |
| 2026-05-04 00:13 | 26.07496 | -80.16529 | 28 ft | 2 kts | 270° |
| 2026-05-04 00:13 | 26.07496 | -80.16533 | 28 ft | 0 kts | 270° |
| 2026-05-04 00:18 | 26.07496 | -80.16560 | 27 ft | 6 kts | 270° |
| 2026-05-04 00:18 | 26.07496 | -80.16588 | 27 ft | 0 kts | 270° |
| 2026-05-04 00:19 | 26.07500 | -80.16608 | 27 ft | 5 kts | 285° |
| 2026-05-04 00:19 | 26.07501 | -80.16612 | 27 ft | 0 kts | 289° |
| 2026-05-04 00:19 | 26.07513 | -80.16632 | 31 ft | 5 kts | 313° |
| 2026-05-04 00:20 | 26.07541 | -80.16643 | 27 ft | 4 kts | 355° |
| 2026-05-04 00:20 | 26.07553 | -80.16644 | 29 ft | 3 kts | 356° |
| 2026-05-04 00:20 | 26.07582 | -80.16645 | 27 ft | 0 kts | 1° |
| 2026-05-04 00:23 | 26.07586 | -80.16645 | 25 ft | 2 kts | 1° |
| 2026-05-04 00:23 | 26.07633 | -80.16643 | 25 ft | 11 kts | 2° |
| 2026-05-04 00:24 | 26.07689 | -80.16616 | 25 ft | 4 kts | 63° |
| 2026-05-04 00:24 | 26.07703 | -80.16555 | 27 ft | 28 kts | 77° |
| 2026-05-04 00:24 | 26.07707 | -80.16390 | 30 ft | 40 kts | 92° |
| 2026-05-04 00:24 | 26.07701 | -80.15851 | 26 ft | 99 kts | 90° |
| 2026-05-04 00:25 | 26.07696 | -80.14846 | 29 ft | 158 kts | 88° |
| 2026-05-04 00:25 | 26.07691 | -80.13529 | 377 ft | 173 kts | 89° |
| 2026-05-04 00:25 | 26.07638 | -80.12176 | 999 ft | 177 kts | 91° |
| 2026-05-04 00:25 | 26.07520 | -80.10818 | 1664 ft | 179 kts | 96° |
| 2026-05-04 00:26 | 26.07337 | -80.09450 | 2287 ft | 179 kts | 99° |
| 2026-05-04 00:26 | 26.07370 | -80.08065 | 2668 ft | 188 kts | 65° |
| 2026-05-04 00:26 | 26.08260 | -80.06964 | 2832 ft | 201 kts | 33° |
| 2026-05-04 00:26 | 26.09545 | -80.06136 | 2947 ft | 225 kts | 24° |
| 2026-05-04 00:27 | 26.11045 | -80.05506 | 3347 ft | 234 kts | 13° |
| 2026-05-04 00:27 | 26.12652 | -80.05115 | 3932 ft | 238 kts | 9° |
| 2026-05-04 00:27 | 26.14330 | -80.04756 | 4273 ft | 253 kts | 4° |
| 2026-05-04 00:27 | 26.16123 | -80.04817 | 4575 ft | 264 kts | 345° |
| 2026-05-04 00:28 | 26.17890 | -80.05410 | 5117 ft | 265 kts | 337° |
| 2026-05-04 00:28 | 26.19618 | -80.06109 | 5755 ft | 264 kts | 336° |
| 2026-05-04 00:28 | 26.21271 | -80.06972 | 6352 ft | 261 kts | 323° |
| 2026-05-04 00:28 | 26.22580 | -80.08319 | 6979 ft | 253 kts | 302° |
| 2026-05-04 00:29 | 26.23407 | -80.10017 | 7643 ft | 248 kts | 290° |
| 2026-05-04 00:29 | 26.24054 | -80.11792 | 8280 ft | 248 kts | 288° |
| 2026-05-04 00:29 | 26.24688 | -80.13632 | 8616 ft | 261 kts | 288° |
| 2026-05-04 00:29 | 26.25395 | -80.15560 | 8890 ft | 278 kts | 293° |
| 2026-05-04 00:30 | 26.26363 | -80.17497 | 9135 ft | 294 kts | 298° |
| 2026-05-04 00:30 | 26.27469 | -80.19470 | 9522 ft | 304 kts | 299° |
| 2026-05-04 00:30 | 26.28609 | -80.21464 | 10052 ft | 307 kts | 299° |
| 2026-05-04 00:30 | 26.29781 | -80.23515 | 10338 ft | 320 kts | 299° |
| 2026-05-04 00:31 | 26.30995 | -80.25646 | 10567 ft | 332 kts | 299° |
| 2026-05-04 00:31 | 26.32239 | -80.27833 | 10793 ft | 343 kts | 299° |
| 2026-05-04 00:31 | 26.33536 | -80.30116 | 11009 ft | 354 kts | 299° |
| 2026-05-04 00:31 | 26.34901 | -80.32450 | 11205 ft | 365 kts | 303° |
| 2026-05-04 00:32 | 26.36660 | -80.34558 | 11380 ft | 380 kts | 318° |
| 2026-05-04 00:32 | 26.38995 | -80.36043 | 11554 ft | 396 kts | 336° |
| 2026-05-04 00:32 | 26.41664 | -80.36900 | 11888 ft | 402 kts | 342° |
| 2026-05-04 00:32 | 26.44394 | -80.37602 | 12316 ft | 403 kts | 343° |
| 2026-05-04 00:33 | 26.47118 | -80.38313 | 12783 ft | 401 kts | 341° |
| 2026-05-04 00:33 | 26.52362 | -80.40303 | 13704 ft | 399 kts | 334° |
| 2026-05-04 00:33 | 26.54963 | -80.41463 | 13899 ft | 406 kts | 333° |
| 2026-05-04 00:34 | 26.57589 | -80.42676 | 14113 ft | 411 kts | 333° |
| 2026-05-04 00:34 | 26.60236 | -80.43905 | 14442 ft | 413 kts | 333° |
| 2026-05-04 00:34 | 26.62892 | -80.45131 | 14837 ft | 413 kts | 333° |
| 2026-05-04 00:34 | 26.65557 | -80.46349 | 15254 ft | 413 kts | 333° |
| 2026-05-04 00:35 | 26.68216 | -80.47555 | 15703 ft | 412 kts | 333° |
| 2026-05-04 00:35 | 26.70878 | -80.48757 | 16166 ft | 412 kts | 332° |
| 2026-05-04 00:35 | 26.73536 | -80.49955 | 16637 ft | 411 kts | 332° |
| 2026-05-04 00:35 | 26.76192 | -80.51152 | 17097 ft | 411 kts | 332° |
| 2026-05-04 00:36 | 26.78838 | -80.52344 | 17552 ft | 410 kts | 332° |
| 2026-05-04 00:36 | 26.81484 | -80.53538 | 18005 ft | 410 kts | 332° |
| 2026-05-04 00:36 | 26.84131 | -80.54738 | 18428 ft | 410 kts | 331° |
| 2026-05-04 00:36 | 26.86777 | -80.55938 | 18753 ft | 412 kts | 330° |
| 2026-05-04 00:37 | 26.89085 | -80.56985 | 18875 ft | 418 kts | 330° |
| 2026-05-04 00:37 | 26.91797 | -80.58216 | 19013 ft | 424 kts | 330° |
| 2026-05-04 00:37 | 26.94553 | -80.59465 | 19154 ft | 429 kts | 330° |
| 2026-05-04 00:37 | 26.97340 | -80.60727 | 19323 ft | 433 kts | 330° |
| 2026-05-04 00:38 | 27.00136 | -80.61992 | 19569 ft | 434 kts | 330° |
| 2026-05-04 00:38 | 27.02940 | -80.63258 | 19874 ft | 434 kts | 330° |
| 2026-05-04 00:38 | 27.05741 | -80.64524 | 20194 ft | 434 kts | 330° |
| 2026-05-04 00:38 | 27.08533 | -80.65787 | 20537 ft | 433 kts | 330° |
| 2026-05-04 00:39 | 27.11326 | -80.67053 | 20930 ft | 431 kts | 330° |
| 2026-05-04 00:39 | 27.14085 | -80.68301 | 21560 ft | 424 kts | 329° |
| 2026-05-04 00:39 | 27.16800 | -80.69528 | 22256 ft | 417 kts | 329° |
| 2026-05-04 00:39 | 27.19483 | -80.70745 | 22764 ft | 416 kts | 329° |
| 2026-05-04 00:40 | 27.22162 | -80.71967 | 23232 ft | 415 kts | 329° |
| 2026-05-04 00:40 | 27.24806 | -80.73175 | 23687 ft | 414 kts | 328° |
| 2026-05-04 00:40 | 27.27507 | -80.74408 | 24082 ft | 413 kts | 328° |
| 2026-05-04 00:40 | 27.30139 | -80.75610 | 24485 ft | 412 kts | 328° |
| 2026-05-04 00:41 | 27.32826 | -80.76836 | 24910 ft | 411 kts | 328° |
| 2026-05-04 00:41 | 27.35468 | -80.78041 | 25310 ft | 409 kts | 328° |
| 2026-05-04 00:41 | 27.38105 | -80.79244 | 25723 ft | 408 kts | 328° |
| 2026-05-04 00:41 | 27.40720 | -80.80444 | 25794 ft | 416 kts | 328° |
| 2026-05-04 00:42 | 27.43421 | -80.81687 | 26004 ft | 419 kts | 328° |
| 2026-05-04 00:42 | 27.46116 | -80.82919 | 26428 ft | 417 kts | 328° |
| 2026-05-04 00:42 | 27.48800 | -80.84142 | 26863 ft | 414 kts | 328° |
| 2026-05-04 00:42 | 27.51462 | -80.85354 | 27302 ft | 411 kts | 328° |
| 2026-05-04 00:43 | 27.54106 | -80.86559 | 27744 ft | 407 kts | 328° |
| 2026-05-04 00:43 | 27.56719 | -80.87752 | 28206 ft | 403 kts | 327° |
| 2026-05-04 00:43 | 27.59303 | -80.88933 | 28666 ft | 399 kts | 327° |
| 2026-05-04 00:43 | 27.61865 | -80.90107 | 29083 ft | 396 kts | 327° |
| 2026-05-04 00:44 | 27.64411 | -80.91276 | 29473 ft | 394 kts | 327° |
| 2026-05-04 00:44 | 27.66942 | -80.92440 | 29848 ft | 392 kts | 327° |
| 2026-05-04 00:44 | 27.69459 | -80.93598 | 30209 ft | 389 kts | 327° |
| 2026-05-04 00:44 | 27.71958 | -80.94747 | 30525 ft | 386 kts | 326° |
| 2026-05-04 00:45 | 27.74438 | -80.95887 | 30843 ft | 383 kts | 326° |
| 2026-05-04 00:45 | 27.76897 | -80.97017 | 31139 ft | 381 kts | 326° |
| 2026-05-04 00:45 | 27.79363 | -80.98156 | 31277 ft | 383 kts | 325° |
| 2026-05-04 00:45 | 27.81839 | -80.99304 | 31388 ft | 386 kts | 325° |
| 2026-05-04 00:46 | 27.84341 | -81.00466 | 31401 ft | 392 kts | 325° |
| 2026-05-04 00:46 | 27.89451 | -81.02838 | 31444 ft | 403 kts | 326° |
| 2026-05-04 00:47 | 27.94715 | -81.05274 | 31472 ft | 415 kts | 326° |
| 2026-05-04 00:47 | 28.00138 | -81.07780 | 31489 ft | 426 kts | 326° |
| 2026-05-04 00:48 | 28.05709 | -81.10354 | 31545 ft | 437 kts | 326° |
| 2026-05-04 00:48 | 28.11408 | -81.12990 | 31664 ft | 448 kts | 326° |
| 2026-05-04 00:49 | 28.17242 | -81.15693 | 31733 ft | 458 kts | 326° |
| 2026-05-04 00:49 | 28.23156 | -81.18436 | 31779 ft | 466 kts | 327° |
| 2026-05-04 00:50 | 28.29167 | -81.21218 | 31840 ft | 466 kts | 327° |
| 2026-05-04 00:50 | 28.35164 | -81.23998 | 31888 ft | 465 kts | 326° |
| 2026-05-04 00:51 | 28.41151 | -81.26784 | 31981 ft | 465 kts | 326° |
| 2026-05-04 00:51 | 28.46163 | -81.29122 | 32039 ft | 464 kts | 326° |
| 2026-05-04 00:52 | 28.52118 | -81.31898 | 32263 ft | 462 kts | 326° |
| 2026-05-04 00:52 | 28.58083 | -81.34689 | 32296 ft | 462 kts | 326° |
| 2026-05-04 00:52 | 28.61054 | -81.36079 | 32556 ft | 461 kts | 326° |
| 2026-05-04 00:53 | 28.64020 | -81.37468 | 32802 ft | 462 kts | 326° |
| 2026-05-04 00:53 | 28.66964 | -81.38850 | 32959 ft | 464 kts | 326° |
| 2026-05-04 00:53 | 28.69992 | -81.40274 | 33174 ft | 466 kts | 326° |
| 2026-05-04 00:53 | 28.72993 | -81.41683 | 33406 ft | 466 kts | 325° |
| 2026-05-04 00:54 | 28.75964 | -81.43077 | 33643 ft | 466 kts | 325° |
| 2026-05-04 00:54 | 28.78965 | -81.44483 | 33890 ft | 466 kts | 325° |
| 2026-05-04 00:54 | 28.81966 | -81.45892 | 34087 ft | 466 kts | 324° |
| 2026-05-04 00:55 | 28.87969 | -81.48715 | 34099 ft | 467 kts | 324° |
| 2026-05-04 00:55 | 28.93979 | -81.51545 | 34097 ft | 467 kts | 324° |
| 2026-05-04 00:56 | 28.99942 | -81.54356 | 34130 ft | 467 kts | 325° |
| 2026-05-04 00:56 | 29.05928 | -81.57180 | 34085 ft | 464 kts | 325° |
| 2026-05-04 00:57 | 29.11902 | -81.60004 | 34091 ft | 464 kts | 325° |
| 2026-05-04 00:57 | 29.17941 | -81.62705 | 34089 ft | 468 kts | 327° |
| 2026-05-04 00:58 | 29.24078 | -81.65261 | 34097 ft | 469 kts | 328° |
| 2026-05-04 00:58 | 29.30213 | -81.67804 | 34111 ft | 468 kts | 329° |
| 2026-05-04 00:59 | 29.36304 | -81.70348 | 34104 ft | 465 kts | 328° |
| 2026-05-04 00:59 | 29.42383 | -81.72909 | 34102 ft | 465 kts | 328° |
| 2026-05-04 01:00 | 29.48455 | -81.75475 | 34108 ft | 465 kts | 328° |
| 2026-05-04 01:00 | 29.54529 | -81.78045 | 34110 ft | 465 kts | 328° |
| 2026-05-04 01:01 | 29.60602 | -81.80616 | 34110 ft | 464 kts | 329° |
| 2026-05-04 01:01 | 29.66658 | -81.83180 | 34108 ft | 463 kts | 329° |
| 2026-05-04 01:02 | 29.72702 | -81.85746 | 34109 ft | 463 kts | 329° |
| 2026-05-04 01:02 | 29.78705 | -81.88297 | 34106 ft | 463 kts | 329° |
| 2026-05-04 01:03 | 29.84737 | -81.90864 | 34109 ft | 463 kts | 329° |
| 2026-05-04 01:03 | 29.90787 | -81.93442 | 34110 ft | 463 kts | 329° |
| 2026-05-04 01:04 | 29.96828 | -81.96017 | 34152 ft | 463 kts | 329° |
| 2026-05-04 01:04 | 30.02870 | -81.98597 | 34141 ft | 463 kts | 329° |
| 2026-05-04 01:05 | 30.08911 | -82.01181 | 34147 ft | 463 kts | 329° |
| 2026-05-04 01:05 | 30.14954 | -82.03768 | 34140 ft | 463 kts | 329° |
| 2026-05-04 01:06 | 30.20995 | -82.06360 | 34150 ft | 463 kts | 329° |
| 2026-05-04 01:06 | 30.27048 | -82.08959 | 34172 ft | 464 kts | 329° |